createdAt,value
2018-04-21T00:01:39.102Z,16.31
2018-04-21T00:04:07.067Z,16.28
2018-04-21T00:06:35.007Z,16.21
2018-04-21T00:09:02.987Z,16.34
2018-04-21T00:11:32.293Z,16.22
2018-04-21T00:14:01.917Z,16.29
2018-04-21T00:16:29.961Z,16.24
2018-04-21T00:18:57.867Z,16.24
2018-04-21T00:21:25.795Z,16.16
2018-04-21T00:23:53.717Z,16.12
2018-04-21T00:26:22.327Z,15.92
2018-04-21T00:28:50.260Z,15.93
2018-04-21T00:31:18.202Z,15.88
2018-04-21T00:33:46.113Z,15.85
2018-04-21T00:36:14.062Z,15.86
2018-04-21T00:38:41.975Z,15.81
2018-04-21T00:41:09.888Z,15.85
2018-04-21T00:43:37.824Z,15.77
2018-04-21T00:46:05.781Z,15.70
2018-04-21T00:48:33.682Z,15.65
2018-04-21T00:51:01.615Z,15.69
2018-04-21T00:53:41.283Z,15.55
2018-04-21T00:56:09.183Z,15.61
2018-04-21T00:58:37.133Z,15.68
2018-04-21T01:01:05.048Z,15.51
2018-04-21T01:03:32.984Z,15.39
2018-04-21T01:06:00.885Z,15.32
2018-04-21T01:08:28.814Z,15.26
2018-04-21T01:10:56.761Z,15.03
2018-04-21T01:13:24.679Z,15.11
2018-04-21T01:15:52.635Z,15.08
2018-04-21T01:18:20.556Z,15.08
2018-04-21T01:20:48.550Z,14.98
2018-04-21T01:23:16.472Z,14.79
2018-04-21T01:25:44.389Z,14.68
2018-04-21T01:28:12.309Z,14.59
2018-04-21T01:30:40.248Z,14.93
2018-04-21T01:33:08.199Z,15.23
2018-04-21T01:35:36.101Z,14.83
2018-04-21T01:38:04.044Z,14.65
2018-04-21T01:40:31.970Z,14.49
2018-04-21T01:42:59.908Z,14.41
2018-04-21T01:45:27.859Z,14.38
2018-04-21T01:47:55.839Z,14.04
2018-04-21T01:50:23.747Z,14.09
2018-04-21T01:52:51.892Z,13.96
2018-04-21T01:55:19.832Z,13.94
2018-04-21T01:57:47.764Z,13.79
2018-04-21T02:00:15.693Z,13.61
2018-04-21T02:02:43.619Z,13.48
2018-04-21T02:05:11.532Z,13.49
2018-04-21T02:07:39.460Z,13.48
2018-04-21T02:10:07.383Z,13.23
2018-04-21T02:12:35.298Z,13.25
2018-04-21T02:15:03.221Z,13.15
2018-04-21T02:17:31.166Z,13.10
2018-04-21T02:19:59.153Z,13.15
2018-04-21T02:22:27.098Z,12.99
2018-04-21T02:24:55.279Z,12.95
2018-04-21T02:27:23.417Z,12.89
2018-04-21T02:29:51.803Z,12.89
2018-04-21T02:32:19.726Z,12.69
2018-04-21T02:34:47.674Z,12.70
2018-04-21T02:37:15.693Z,12.74
2018-04-21T02:39:43.620Z,12.69
2018-04-21T02:42:11.549Z,12.56
2018-04-21T02:44:39.492Z,12.50
2018-04-21T02:47:07.551Z,12.61
2018-04-21T02:49:35.584Z,12.45
2018-04-21T02:52:03.598Z,12.56
2018-04-21T02:54:31.493Z,12.42
2018-04-21T02:56:59.436Z,12.41
2018-04-21T02:59:27.368Z,12.38
2018-04-21T03:01:55.300Z,12.44
2018-04-21T03:04:23.241Z,12.30
2018-04-21T03:06:51.183Z,12.30
2018-04-21T03:09:19.133Z,12.19
2018-04-21T03:11:47.091Z,12.11
2018-04-21T03:14:15.011Z,12.19
2018-04-21T03:16:42.928Z,12.18
2018-04-21T03:19:10.851Z,12.14
2018-04-21T03:21:38.801Z,12.11
2018-04-21T03:24:06.725Z,12.18
2018-04-21T03:26:34.738Z,12.23
2018-04-21T03:29:02.700Z,12.11
2018-04-21T03:31:30.689Z,11.92
2018-04-21T03:33:58.600Z,11.99
2018-04-21T03:36:26.535Z,11.90
2018-04-21T03:38:55.338Z,11.88
2018-04-21T03:41:23.339Z,11.92
2018-04-21T03:43:51.265Z,11.96
2018-04-21T03:46:19.211Z,12.00
2018-04-21T03:48:47.135Z,11.92
2018-04-21T03:51:15.071Z,11.92
2018-04-21T03:53:42.984Z,11.87
2018-04-21T03:56:10.929Z,11.63
2018-04-21T03:58:38.832Z,11.72
2018-04-21T04:01:06.763Z,11.63
2018-04-21T04:03:34.686Z,11.60
2018-04-21T04:06:02.645Z,11.67
2018-04-21T04:08:30.606Z,11.63
2018-04-21T04:10:58.496Z,11.71
2018-04-21T04:13:26.477Z,11.68
2018-04-21T04:16:06.041Z,11.58
2018-04-21T04:18:47.569Z,11.63
2018-04-21T04:21:40.749Z,11.63
2018-04-21T04:24:08.681Z,11.61
2018-04-21T04:26:36.633Z,11.71
2018-04-21T04:29:04.551Z,11.61
2018-04-21T04:31:32.515Z,11.57
2018-04-21T04:34:00.447Z,11.67
2018-04-21T04:36:28.379Z,11.69
2018-04-21T04:38:56.335Z,11.55
2018-04-21T04:41:24.267Z,11.54
2018-04-21T04:43:52.215Z,11.55
2018-04-21T04:46:20.144Z,11.44
2018-04-21T04:48:48.055Z,11.43
2018-04-21T04:51:15.981Z,11.55
2018-04-21T04:53:43.931Z,11.45
2018-04-21T04:56:11.864Z,11.45
2018-04-21T04:58:39.811Z,11.51
2018-04-21T05:01:07.788Z,11.53
2018-04-21T05:03:35.770Z,11.37
2018-04-21T05:06:03.700Z,11.52
2018-04-21T05:08:31.616Z,11.49
2018-04-21T05:10:59.556Z,11.56
2018-04-21T05:13:27.506Z,11.67
2018-04-21T05:15:55.484Z,11.72
2018-04-21T05:18:23.392Z,11.56
2018-04-21T05:20:51.351Z,11.59
2018-04-21T05:23:19.261Z,11.64
2018-04-21T05:25:47.242Z,11.73
2018-04-21T05:28:15.164Z,11.75
2018-04-21T05:30:43.118Z,11.61
2018-04-21T05:33:11.068Z,11.64
2018-04-21T05:35:38.995Z,11.55
2018-04-21T05:38:06.915Z,11.63
2018-04-21T05:40:34.850Z,11.59
2018-04-21T05:43:02.790Z,11.81
2018-04-21T05:45:30.703Z,11.81
2018-04-21T05:47:58.656Z,12.05
2018-04-21T05:50:26.612Z,11.74
2018-04-21T05:52:54.529Z,11.79
2018-04-21T05:55:22.467Z,11.83
2018-04-21T05:57:50.397Z,11.89
2018-04-21T06:00:18.340Z,11.88
2018-04-21T06:02:46.235Z,12.08
2018-04-21T06:05:14.157Z,11.99
2018-04-21T06:07:42.096Z,11.87
2018-04-21T06:10:10.022Z,11.97
2018-04-21T06:12:37.960Z,12.13
2018-04-21T06:15:05.881Z,12.12
2018-04-21T06:17:33.824Z,12.23
2018-04-21T06:20:01.772Z,12.45
2018-04-21T06:22:29.793Z,12.74
2018-04-21T06:24:57.728Z,12.80
2018-04-21T06:27:25.654Z,13.17
2018-04-21T06:29:53.663Z,13.01
2018-04-21T06:32:21.569Z,13.31
2018-04-21T06:34:49.508Z,13.48
2018-04-21T06:37:17.434Z,13.35
2018-04-21T06:39:45.371Z,13.45
2018-04-21T06:42:13.308Z,13.70
2018-04-21T06:44:41.218Z,14.15
2018-04-21T06:47:09.132Z,14.35
2018-04-21T06:49:37.055Z,14.13
2018-04-21T06:52:04.974Z,14.09
2018-04-21T06:54:32.878Z,14.21
2018-04-21T06:57:00.810Z,14.49
2018-04-21T06:59:28.726Z,14.65
2018-04-21T07:01:56.643Z,14.69
2018-04-21T07:04:24.560Z,14.73
2018-04-21T07:06:52.550Z,14.78
2018-04-21T07:09:20.453Z,15.14
2018-04-21T07:11:48.372Z,15.42
2018-04-21T07:14:16.293Z,15.42
2018-04-21T07:16:44.329Z,15.72
2018-04-21T07:19:12.527Z,15.66
2018-04-21T07:21:40.405Z,15.67
2018-04-21T07:24:08.993Z,15.63
2018-04-21T07:26:36.948Z,15.82
2018-04-21T07:29:04.940Z,16.01
2018-04-21T07:31:32.879Z,16.11
2018-04-21T07:34:00.812Z,16.58
2018-04-21T07:36:28.942Z,16.91
2018-04-21T07:38:56.922Z,17.63
2018-04-21T07:41:24.929Z,17.18
2018-04-21T07:43:52.799Z,16.88
2018-04-21T07:46:20.728Z,17.05
2018-04-21T07:48:48.646Z,16.93
2018-04-21T07:51:16.612Z,17.05
2018-04-21T07:53:44.604Z,17.29
2018-04-21T07:56:12.580Z,16.90
2018-04-21T07:58:40.499Z,17.02
2018-04-21T08:01:08.552Z,17.44
2018-04-21T08:03:36.455Z,17.45
2018-04-21T08:06:04.460Z,18.09
2018-04-21T08:08:32.380Z,18.30
2018-04-21T08:11:00.295Z,18.09
2018-04-21T08:13:28.252Z,18.63
2018-04-21T08:15:56.173Z,18.63
2018-04-21T08:18:24.093Z,18.85
2018-04-21T08:20:52.025Z,18.96
2018-04-21T08:23:20.011Z,19.02
2018-04-21T08:25:47.932Z,19.13
2018-04-21T08:28:15.847Z,19.18
2018-04-21T08:30:43.764Z,19.83
2018-04-21T08:33:11.708Z,19.89
2018-04-21T08:35:39.692Z,19.72
2018-04-21T08:38:07.749Z,19.82
2018-04-21T08:40:35.664Z,19.67
2018-04-21T08:43:03.608Z,19.95
2018-04-21T08:45:31.576Z,19.63
2018-04-21T08:47:59.511Z,19.98
2018-04-21T08:50:27.442Z,19.92
2018-04-21T08:52:55.366Z,19.88
2018-04-21T08:55:23.351Z,20.59
2018-04-21T08:57:51.272Z,20.74
2018-04-21T09:00:19.419Z,20.34
2018-04-21T09:02:47.394Z,20.70
2018-04-21T09:05:15.336Z,20.66
2018-04-21T09:07:43.264Z,20.62
2018-04-21T09:10:11.220Z,20.60
2018-04-21T09:12:39.237Z,20.86
2018-04-21T09:15:07.224Z,20.65
2018-04-21T09:17:35.208Z,21.09
2018-04-21T09:20:03.214Z,21.47
2018-04-21T09:22:31.159Z,21.37
2018-04-21T09:24:59.093Z,21.39
2018-04-21T09:27:27.130Z,21.61
2018-04-21T09:29:55.028Z,21.95
2018-04-21T09:32:22.944Z,21.60
2018-04-21T09:34:50.857Z,21.51
2018-04-21T09:37:18.785Z,21.64
2018-04-21T09:39:46.695Z,21.75
2018-04-21T09:42:14.620Z,21.45
2018-04-21T09:44:42.560Z,21.80
2018-04-21T09:47:10.474Z,21.91
2018-04-21T09:49:38.426Z,21.98
2018-04-21T09:52:06.354Z,21.91
2018-04-21T09:54:34.282Z,22.05
2018-04-21T09:57:02.707Z,22.29
2018-04-21T09:59:30.712Z,22.34
2018-04-21T10:01:58.620Z,22.18
2018-04-21T10:04:26.551Z,22.31
2018-04-21T10:06:54.504Z,22.17
2018-04-21T10:09:22.412Z,22.48
2018-04-21T10:11:50.334Z,22.37
2018-04-21T10:14:18.279Z,21.90
2018-04-21T10:16:46.215Z,22.11
2018-04-21T10:19:14.170Z,22.26
2018-04-21T10:21:42.158Z,22.10
2018-04-21T10:24:10.060Z,22.40
2018-04-21T10:26:38.006Z,22.14
2018-04-21T10:29:05.932Z,22.29
2018-04-21T10:31:33.901Z,22.73
2018-04-21T10:34:01.826Z,22.64
2018-04-21T10:36:29.741Z,22.86
2018-04-21T10:38:57.664Z,22.64
2018-04-21T10:41:25.603Z,23.00
2018-04-21T10:43:53.532Z,23.22
2018-04-21T10:46:21.441Z,22.77
2018-04-21T10:48:49.364Z,22.95
2018-04-21T10:51:17.338Z,22.63
2018-04-21T10:53:45.223Z,22.70
2018-04-21T10:56:13.141Z,23.11
2018-04-21T10:58:41.074Z,22.86
2018-04-21T11:01:08.992Z,22.66
2018-04-21T11:03:36.971Z,22.87
2018-04-21T11:06:04.870Z,23.22
2018-04-21T11:08:32.831Z,23.53
2018-04-21T11:11:00.792Z,22.82
2018-04-21T11:13:28.728Z,22.38
2018-04-21T11:15:56.835Z,22.58
2018-04-21T11:18:24.751Z,22.57
2018-04-21T11:20:52.651Z,22.41
2018-04-21T11:23:20.592Z,22.14
2018-04-21T11:25:48.586Z,21.62
2018-04-21T11:28:16.496Z,21.37
2018-04-21T11:30:44.436Z,21.77
2018-04-21T11:33:12.331Z,21.85
2018-04-21T11:35:40.271Z,21.27
2018-04-21T11:38:08.184Z,21.34
2018-04-21T11:40:36.117Z,21.62
2018-04-21T11:43:04.046Z,21.27
2018-04-21T11:45:32.012Z,21.43
2018-04-21T11:47:59.932Z,21.67
2018-04-21T11:50:27.850Z,21.09
2018-04-21T11:52:55.792Z,21.04
2018-04-21T11:55:23.728Z,21.72
2018-04-21T11:57:51.629Z,22.18
2018-04-21T12:00:19.579Z,22.24
2018-04-21T12:02:47.531Z,22.47
2018-04-21T12:05:15.493Z,22.38
2018-04-21T12:07:43.381Z,22.32
2018-04-21T12:10:11.267Z,22.06
2018-04-21T12:12:39.249Z,22.38
2018-04-21T12:15:07.195Z,22.61
2018-04-21T12:17:35.275Z,22.39
2018-04-21T12:20:03.233Z,22.60
2018-04-21T12:22:31.176Z,22.42
2018-04-21T12:24:59.083Z,22.25
2018-04-21T12:27:27.007Z,22.47
2018-04-21T12:29:54.934Z,22.51
2018-04-21T12:32:22.838Z,22.53
2018-04-21T12:34:50.752Z,22.36
2018-04-21T12:37:18.667Z,22.53
2018-04-21T12:39:46.579Z,22.61
2018-04-21T12:42:14.493Z,22.27
2018-04-21T12:44:42.432Z,22.44
2018-04-21T12:47:10.339Z,22.67
2018-04-21T12:49:38.260Z,22.49
2018-04-21T12:52:06.185Z,22.35
2018-04-21T12:54:34.079Z,22.49
2018-04-21T12:57:01.994Z,21.69
2018-04-21T12:59:29.923Z,21.14
2018-04-21T13:01:57.830Z,21.28
2018-04-21T13:04:25.764Z,21.40
2018-04-21T13:06:53.657Z,21.08
2018-04-21T13:09:21.592Z,20.98
2018-04-21T13:11:49.493Z,21.06
2018-04-21T13:14:17.674Z,21.00
2018-04-21T13:16:45.607Z,20.93
2018-04-21T13:19:13.517Z,21.14
2018-04-21T13:21:41.424Z,20.87
2018-04-21T13:24:09.339Z,21.00
2018-04-21T13:26:37.252Z,20.77
2018-04-21T13:29:05.143Z,21.03
2018-04-21T13:31:33.104Z,21.66
2018-04-21T13:34:01.014Z,21.40
2018-04-21T13:36:28.921Z,21.03
2018-04-21T13:38:56.833Z,21.42
2018-04-21T13:41:24.845Z,21.94
2018-04-21T13:43:52.771Z,22.07
2018-04-21T13:46:20.685Z,21.89
2018-04-21T13:48:48.592Z,21.97
2018-04-21T13:51:16.508Z,21.57
2018-04-21T13:53:44.423Z,21.64
2018-04-21T13:56:12.329Z,21.91
2018-04-21T13:58:40.248Z,21.87
2018-04-21T14:01:08.151Z,21.55
2018-04-21T14:03:36.065Z,21.32
2018-04-21T14:06:03.977Z,21.23
2018-04-21T14:08:31.932Z,21.34
2018-04-21T14:11:00.661Z,21.45
2018-04-21T14:13:28.567Z,21.59
2018-04-21T14:15:56.501Z,21.34
2018-04-21T14:18:24.397Z,21.23
2018-04-21T14:20:52.311Z,21.28
2018-04-21T14:23:20.272Z,21.28
2018-04-21T14:25:48.142Z,21.17
2018-04-21T14:28:16.039Z,21.08
2018-04-21T14:30:43.939Z,20.83
2018-04-21T14:33:11.860Z,20.74
2018-04-21T14:35:39.779Z,20.86
2018-04-21T14:38:07.716Z,20.90
2018-04-21T14:40:35.640Z,21.03
2018-04-21T14:43:03.563Z,21.18
2018-04-21T14:45:31.467Z,20.75
2018-04-21T14:47:59.620Z,20.88
2018-04-21T14:50:27.496Z,20.40
2018-04-21T14:52:55.460Z,20.71
2018-04-21T14:55:23.379Z,20.32
2018-04-21T14:57:51.271Z,20.49
2018-04-21T15:00:19.200Z,20.53
2018-04-21T15:02:47.194Z,20.42
2018-04-21T15:05:15.084Z,20.39
2018-04-21T15:07:43.839Z,20.44
2018-04-21T15:10:11.757Z,20.54
2018-04-21T15:12:39.685Z,20.49
2018-04-21T15:15:07.660Z,20.50
2018-04-21T15:17:35.576Z,20.37
2018-04-21T15:20:03.527Z,20.32
2018-04-21T15:22:31.463Z,20.22
2018-04-21T15:24:59.414Z,19.96
2018-04-21T15:27:27.354Z,19.83
2018-04-21T15:29:55.302Z,19.87
2018-04-21T15:32:23.252Z,19.85
2018-04-21T15:34:51.175Z,19.83
2018-04-21T15:37:19.103Z,19.67
2018-04-21T15:39:47.004Z,19.79
2018-04-21T15:42:14.939Z,19.54
2018-04-21T15:44:42.873Z,19.60
2018-04-21T15:47:10.961Z,19.40
2018-04-21T15:49:38.901Z,19.21
2018-04-21T15:52:07.648Z,19.00
2018-04-21T15:54:35.576Z,19.14
2018-04-21T15:57:03.484Z,19.32
2018-04-21T15:59:31.413Z,19.20
2018-04-21T16:01:59.342Z,19.04
2018-04-21T16:04:27.308Z,19.06
2018-04-21T16:06:55.201Z,19.08
2018-04-21T16:09:23.118Z,18.97
2018-04-21T16:11:51.017Z,19.08
2018-04-21T16:14:18.952Z,19.04
2018-04-21T16:16:46.864Z,18.84
2018-04-21T16:19:14.779Z,18.87
2018-04-21T16:21:42.686Z,18.71
2018-04-21T16:24:10.621Z,18.79
2018-04-21T16:26:38.524Z,18.97
2018-04-21T16:29:06.572Z,18.85
2018-04-21T16:31:34.512Z,18.55
2018-04-21T16:34:02.436Z,18.62
2018-04-21T16:36:30.342Z,18.38
2018-04-21T16:38:58.255Z,18.40
2018-04-21T16:41:26.175Z,18.47
2018-04-21T16:43:54.084Z,18.39
2018-04-21T16:46:21.999Z,18.35
2018-04-21T16:48:49.952Z,18.21
2018-04-21T16:51:17.850Z,18.12
2018-04-21T16:53:45.763Z,17.98
2018-04-21T16:56:13.692Z,17.99
2018-04-21T16:58:41.630Z,17.77
2018-04-21T17:01:09.565Z,17.67
2018-04-21T17:03:37.529Z,17.77
2018-04-21T17:06:05.492Z,17.51
2018-04-21T17:08:33.514Z,17.48
2018-04-21T17:11:01.492Z,17.55
2018-04-21T17:13:29.408Z,17.53
2018-04-21T17:15:57.368Z,17.51
2018-04-21T17:18:25.315Z,17.64
2018-04-21T17:20:53.244Z,17.44
2018-04-21T17:23:21.150Z,17.31
2018-04-21T17:25:49.141Z,17.39
2018-04-21T17:28:17.077Z,17.09
2018-04-21T17:30:44.983Z,17.20
2018-04-21T17:33:13.128Z,17.30
2018-04-21T17:35:41.261Z,17.16
2018-04-21T17:38:09.197Z,17.06
2018-04-21T17:40:37.150Z,17.15
2018-04-21T17:43:05.056Z,17.20
2018-04-21T17:45:33.065Z,17.03
2018-04-21T17:48:01.003Z,17.11
2018-04-21T17:50:29.124Z,17.01
2018-04-21T17:52:58.075Z,16.91
2018-04-21T17:55:26.017Z,17.02
2018-04-21T17:57:53.928Z,17.04
2018-04-21T18:00:21.850Z,16.98
2018-04-21T18:02:49.781Z,16.76
2018-04-21T18:05:18.323Z,16.84
2018-04-21T18:07:46.223Z,16.66
2018-04-21T18:10:14.348Z,16.75
2018-04-21T18:12:42.395Z,16.88
2018-04-21T18:15:10.385Z,16.90
2018-04-21T18:17:38.635Z,16.69
2018-04-21T18:20:06.561Z,16.74
2018-04-21T18:22:34.527Z,16.89
2018-04-21T18:25:02.468Z,16.94
2018-04-21T18:27:30.409Z,16.88
2018-04-21T18:29:58.310Z,16.80
2018-04-21T18:32:26.289Z,16.70
2018-04-21T18:34:54.251Z,16.63
2018-04-21T18:37:22.163Z,16.84
2018-04-21T18:39:50.084Z,16.96
2018-04-21T18:42:18.076Z,16.79
2018-04-21T18:44:45.988Z,16.78
2018-04-21T18:47:13.967Z,16.90
2018-04-21T18:49:41.903Z,17.08
2018-04-21T18:52:09.804Z,16.78
2018-04-21T18:54:37.726Z,16.36
2018-04-21T18:57:05.715Z,16.13
2018-04-21T18:59:33.593Z,16.11
2018-04-21T19:02:01.508Z,16.00
2018-04-21T19:04:29.430Z,15.92
2018-04-21T19:06:57.319Z,15.73
2018-04-21T19:09:25.291Z,15.77
2018-04-21T19:11:53.203Z,15.76
2018-04-21T19:14:21.134Z,15.71
2018-04-21T19:16:49.047Z,15.86
2018-04-21T19:19:16.979Z,16.25
2018-04-21T19:21:45.809Z,16.07
2018-04-21T19:24:14.074Z,16.00
2018-04-21T19:26:42.057Z,15.76
2018-04-21T19:29:09.922Z,15.49
2018-04-21T19:31:37.869Z,15.37
2018-04-21T19:34:05.838Z,15.22
2018-04-21T19:36:33.743Z,15.16
2018-04-21T19:39:01.655Z,15.18
2018-04-21T19:41:30.310Z,15.10
2018-04-21T19:43:58.230Z,15.03
2018-04-21T19:46:26.176Z,14.99
2018-04-21T19:48:54.092Z,14.85
2018-04-21T19:51:22.040Z,14.58
2018-04-21T19:53:50.180Z,14.48
2018-04-21T19:56:18.063Z,14.36
2018-04-21T19:58:45.993Z,14.21
2018-04-21T20:01:13.875Z,14.20
2018-04-21T20:03:41.811Z,14.11
2018-04-21T20:06:09.772Z,14.13
2018-04-21T20:08:37.690Z,14.09
2018-04-21T20:11:05.593Z,14.07
2018-04-21T20:13:33.503Z,13.75
2018-04-21T20:16:01.428Z,13.61
2018-04-21T20:18:29.345Z,13.62
2018-04-21T20:20:57.263Z,13.21
2018-04-21T20:23:25.202Z,13.25
2018-04-21T20:25:53.131Z,13.35
2018-04-21T20:28:21.048Z,13.49
2018-04-21T20:30:48.993Z,13.51
2018-04-21T20:33:16.911Z,13.43
2018-04-21T20:35:44.888Z,13.30
2018-04-21T20:38:12.789Z,13.18
2018-04-21T20:40:40.763Z,13.07
2018-04-21T20:43:08.900Z,13.16
2018-04-21T20:45:37.520Z,13.26
2018-04-21T20:48:05.449Z,13.21
2018-04-21T20:50:33.478Z,13.33
2018-04-21T20:53:01.380Z,13.33
2018-04-21T20:55:29.284Z,13.35
2018-04-21T20:57:57.228Z,13.34
2018-04-21T21:00:25.143Z,13.40
2018-04-21T21:02:53.115Z,13.23
2018-04-21T21:05:21.084Z,13.19
2018-04-21T21:07:49.062Z,13.07
2018-04-21T21:10:17.009Z,13.01
2018-04-21T21:12:44.930Z,12.85
2018-04-21T21:15:12.901Z,12.77
2018-04-21T21:17:40.806Z,12.74
2018-04-21T21:20:08.754Z,12.81
2018-04-21T21:22:36.668Z,12.87
2018-04-21T21:25:04.608Z,12.86
2018-04-21T21:27:32.512Z,12.78
2018-04-21T21:30:00.419Z,12.67
2018-04-21T21:32:28.320Z,12.51
2018-04-21T21:34:56.245Z,12.60
2018-04-21T21:37:24.147Z,12.59
2018-04-21T21:39:52.059Z,12.61
2018-04-21T21:42:19.970Z,12.82
2018-04-21T21:44:47.916Z,12.66
2018-04-21T21:47:15.831Z,12.55
2018-04-21T21:49:43.791Z,12.53
2018-04-21T21:52:11.689Z,12.47
2018-04-21T21:54:39.655Z,12.40
2018-04-21T21:57:07.911Z,12.51
2018-04-21T21:59:35.824Z,12.62
2018-04-21T22:02:03.746Z,12.62
2018-04-21T22:04:31.645Z,12.58
2018-04-21T22:07:05.239Z,12.60
2018-04-21T22:09:33.165Z,12.66
2018-04-21T22:12:01.077Z,12.66
2018-04-21T22:14:28.998Z,12.73
2018-04-21T22:16:56.931Z,12.65
2018-04-21T22:19:24.837Z,12.69
2018-04-21T22:21:52.745Z,12.67
2018-04-21T22:24:20.654Z,12.61
2018-04-21T22:26:48.592Z,12.63
2018-04-21T22:29:16.492Z,12.56
2018-04-21T22:31:44.424Z,12.70
2018-04-21T22:34:12.350Z,12.66
2018-04-21T22:36:41.168Z,12.65
2018-04-21T22:39:09.119Z,12.76
2018-04-21T22:41:37.023Z,12.96
2018-04-21T22:44:04.971Z,12.90
2018-04-21T22:46:32.889Z,13.07
2018-04-21T22:49:00.799Z,12.96
2018-04-21T22:51:28.704Z,12.91
2018-04-21T22:53:56.630Z,12.89
2018-04-21T22:56:24.528Z,12.84
2018-04-21T22:58:52.437Z,12.87
2018-04-21T23:01:20.351Z,13.12
2018-04-21T23:03:48.280Z,13.30
2018-04-21T23:06:16.216Z,13.32
2018-04-21T23:08:44.180Z,13.20
2018-04-21T23:11:12.160Z,13.06
2018-04-21T23:13:40.020Z,12.94
2018-04-21T23:16:07.961Z,12.84
2018-04-21T23:18:35.956Z,12.85
2018-04-21T23:21:03.898Z,12.80
2018-04-21T23:23:31.804Z,12.72
2018-04-21T23:25:59.778Z,12.74
2018-04-21T23:28:27.716Z,12.78
2018-04-21T23:30:55.712Z,12.66
2018-04-21T23:33:23.652Z,12.67
2018-04-21T23:35:51.586Z,12.58
2018-04-21T23:38:19.581Z,12.45
2018-04-21T23:40:47.468Z,12.35
2018-04-21T23:43:15.407Z,12.26
2018-04-21T23:45:43.339Z,12.26
2018-04-21T23:48:11.350Z,12.21
2018-04-21T23:50:39.244Z,12.08
2018-04-21T23:53:07.156Z,12.02
2018-04-21T23:55:35.106Z,12.10
2018-04-21T23:58:03.024Z,12.17
